Time;durP1;ratioP1;P1;durP2;ratioP2;P2;SDS_P1;SDS_P2;PMS_P1;PMS_P2;Temp;Humidity;BMP_temperature;BMP_pressure;BME280_temperature;BME280_humidity;BME280_pressure;Samples;Min_cycle;Max_cycle;Signal;HPM_P1;HPM_P2
2022/09/08 05:15:22;;;;;;;21.08;13.38;;;;;;;;;;5067827;28;20902;-63
2022/09/08 05:17:48;;;;;;;22.17;11.10;;;;;;;;;;5067999;28;20024;-62
2022/09/08 05:20:14;;;;;;;25.50;12.55;;;;;;;;;;5068126;28;20033;-63
2022/09/08 05:22:41;;;;;;;19.60;12.05;;;;;;;;;;5067005;28;20108;-64
2022/09/08 05:25:07;;;;;;;26.35;12.90;;;;;;;;;;5048401;28;20032;-62
2022/09/08 05:27:33;;;;;;;21.15;12.90;;;;;;;;;;5047860;28;20036;-64
2022/09/08 05:29:59;;;;;;;21.55;13.20;;;;;;;;;;5046864;28;20029;-63
2022/09/08 05:32:25;;;;;;;21.17;13.43;;;;;;;;;;5047584;28;20120;-63
2022/09/08 05:34:51;;;;;;;25.17;14.30;;;;;;;;;;5047577;28;20430;-63
2022/09/08 05:37:17;;;;;;;19.30;13.60;;;;;;;;;;5047898;28;20033;-64
2022/09/08 05:39:43;;;;;;;23.60;13.60;;;;;;;;;;5047823;28;20079;-63
2022/09/08 05:42:09;;;;;;;20.80;13.45;;;;;;;;;;5046921;28;20026;-62
2022/09/08 05:44:35;;;;;;;21.23;13.50;;;;;;;;;;5032195;28;20050;-67
2022/09/08 05:47:01;;;;;;;21.15;13.27;;;;;;;;;;5027796;28;20022;-62
2022/09/08 05:49:27;;;;;;;17.65;12.25;;;;;;;;;;5027736;28;20393;-62
2022/09/08 05:51:53;;;;;;;18.35;12.30;;;;;;;;;;5033788;28;20029;-65
2022/09/08 05:54:20;;;;;;;17.42;12.35;;;;;;;;;;5027800;28;20037;-63
2022/09/08 05:56:46;;;;;;;16.90;12.07;;;;;;;;;;5027454;28;20025;-64
2022/09/08 05:59:12;;;;;;;21.77;12.68;;;;;;;;;;5029674;28;20030;-63
2022/09/08 06:01:38;;;;;;;18.17;12.90;;;;;;;;;;5027474;28;20474;-63
2022/09/08 06:04:04;;;;;;;18.83;13.57;;;;;;;;;;5027857;28;20493;-63
2022/09/08 06:06:34;;;;;;;19.38;12.95;;;;;;;;;;5027859;28;20430;-65
2022/09/08 06:09:00;;;;;;;16.77;11.63;;;;;;;;;;5026469;28;20370;-62
2022/09/08 06:11:28;;;;;;;17.95;12.07;;;;;;;;;;5027485;28;20472;-61
2022/09/08 06:13:55;;;;;;;19.88;12.43;;;;;;;;;;5027431;28;20056;-62
2022/09/08 06:16:21;;;;;;;18.00;10.63;;;;;;;;;;5027232;28;20034;-60
2022/09/08 06:18:48;;;;;;;22.52;11.75;;;;;;;;;;5027637;28;20511;-64
2022/09/08 06:21:16;;;;;;;16.00;10.38;;;;;;;;;;5028770;28;20036;-63
2022/09/08 06:23:42;;;;;;;34.80;20.92;;;;;;;;;;5047124;28;20037;-63
2022/09/08 06:26:27;;;;;;;33.10;20.65;;;;;;;;;;5036704;28;20433;-63
2022/09/08 06:28:58;;;;;;;22.60;14.25;;;;;;;;;;5033701;28;20560;-63
2022/09/08 06:31:29;;;;;;;23.90;14.35;;;;;;;;;;5033459;28;20109;-64
2022/09/08 06:33:55;;;;;;;20.58;12.57;;;;;;;;;;5033349;28;20104;-66
2022/09/08 06:36:23;;;;;;;22.63;11.80;;;;;;;;;;5033255;28;20485;-66
2022/09/08 06:38:51;;;;;;;17.23;10.90;;;;;;;;;;5033090;28;20084;-63
2022/09/08 06:41:20;;;;;;;32.92;14.23;;;;;;;;;;5033184;28;20027;-63
2022/09/08 06:43:50;;;;;;;15.50;11.65;;;;;;;;;;5033015;28;20488;-62
2022/09/08 06:46:21;;;;;;;25.02;12.93;;;;;;;;;;5033123;28;20029;-61
2022/09/08 06:48:47;;;;;;;19.98;11.20;;;;;;;;;;5032910;28;20056;-63
2022/09/08 06:51:19;;;;;;;18.45;12.18;;;;;;;;;;5033264;28;20499;-65
2022/09/08 06:53:48;;;;;;;22.63;12.70;;;;;;;;;;5032767;28;20034;-61
2022/09/08 06:56:17;;;;;;;19.90;11.75;;;;;;;;;;5033104;28;20100;-62
2022/09/08 06:58:44;;;;;;;16.48;11.18;;;;;;;;;;5065126;28;20412;-62
2022/09/08 07:01:29;;;;;;;15.48;12.25;;;;;;;;;;5032811;28;20083;-64
2022/09/08 07:04:01;;;;;;;16.63;11.20;;;;;;;;;;5021531;28;20022;-62
2022/09/08 07:06:28;;;;;;;19.08;12.45;;;;;;;;;;5023671;28;20029;-62
2022/09/08 07:09:02;;;;;;;21.70;11.63;;;;;;;;;;5023109;28;20125;-62
2022/09/08 07:11:28;;;;;;;18.98;12.75;;;;;;;;;;5019982;28;20034;-64
2022/09/08 07:14:11;;;;;;;26.13;12.65;;;;;;;;;;5012714;28;20054;-62
2022/09/08 07:16:45;;;;;;;23.13;12.43;;;;;;;;;;5031179;28;20071;-62
2022/09/08 07:19:15;;;;;;;18.15;11.40;;;;;;;;;;5032582;28;20021;-62
2022/09/08 07:21:59;;;;;;;19.85;12.63;;;;;;;;;;5032623;28;20338;-62
2022/09/08 07:24:28;;;;;;;20.42;12.77;;;;;;;;;;5032154;28;20404;-62
2022/09/08 07:26:55;;;;;;;14.60;10.93;;;;;;;;;;5032539;28;20358;-62
2022/09/08 07:29:24;;;;;;;19.23;11.35;;;;;;;;;;5032519;28;20500;-62
2022/09/08 07:31:51;;;;;;;14.52;10.70;;;;;;;;;;5032688;28;20025;-62
2022/09/08 07:34:22;;;;;;;15.88;10.80;;;;;;;;;;5032412;28;20033;-65
2022/09/08 07:36:51;;;;;;;13.75;9.02;;;;;;;;;;5031308;28;20072;-64
2022/09/08 07:39:37;;;;;;;14.82;9.43;;;;;;;;;;5032185;28;20029;-62
2022/09/08 07:42:04;;;;;;;18.50;10.13;;;;;;;;;;5032028;28;20097;-60
2022/09/08 07:44:30;;;;;;;13.02;10.45;;;;;;;;;;5031788;28;20489;-62
2022/09/08 07:46:56;;;;;;;25.70;10.57;;;;;;;;;;5032188;28;20025;-62
2022/09/08 07:49:25;;;;;;;30.25;10.75;;;;;;;;;;5031989;28;20500;-61
2022/09/08 07:51:57;;;;;;;17.70;10.45;;;;;;;;;;5031655;28;20033;-60
2022/09/08 07:54:43;;;;;;;16.83;10.27;;;;;;;;;;5031724;28;20108;-61
2022/09/08 07:57:29;;;;;;;19.55;11.57;;;;;;;;;;5031703;28;20037;-64
2022/09/08 07:59:55;;;;;;;15.32;9.82;;;;;;;;;;5008892;28;20040;-62
2022/09/08 08:02:30;;;;;;;16.98;7.90;;;;;;;;;;5009159;28;20034;-60
2022/09/08 08:04:59;;;;;;;15.93;8.70;;;;;;;;;;5009100;28;20046;-63
2022/09/08 08:07:40;;;;;;;11.50;7.43;;;;;;;;;;5009462;28;20127;-61
2022/09/08 08:10:14;;;;;;;17.83;7.82;;;;;;;;;;5009564;28;20030;-60
2022/09/08 08:12:46;;;;;;;12.20;6.43;;;;;;;;;;5008632;28;20109;-60
2022/09/08 08:15:18;;;;;;;22.23;7.57;;;;;;;;;;5008422;28;20061;-59
2022/09/08 08:17:50;;;;;;;14.82;6.88;;;;;;;;;;5009248;28;20393;-59
2022/09/08 08:20:32;;;;;;;14.45;7.85;;;;;;;;;;5009320;28;20040;-59
2022/09/08 08:23:09;;;;;;;13.13;6.40;;;;;;;;;;5009060;28;20095;-58
2022/09/08 08:25:44;;;;;;;9.63;6.15;;;;;;;;;;5008930;28;20088;-60
2022/09/08 08:28:14;;;;;;;11.27;5.68;;;;;;;;;;5008613;28;20034;-58
2022/09/08 08:30:58;;;;;;;15.90;6.18;;;;;;;;;;5008811;28;20038;-58
2022/09/08 08:33:40;;;;;;;9.75;6.70;;;;;;;;;;4994854;28;20438;-58
2022/09/08 08:36:07;;;;;;;10.53;6.00;;;;;;;;;;5003428;28;20025;-58
2022/09/08 08:38:35;;;;;;;11.40;6.22;;;;;;;;;;5011495;28;20030;-58
2022/09/08 08:41:03;;;;;;;11.88;6.93;;;;;;;;;;5012084;28;20025;-59
2022/09/08 08:43:48;;;;;;;15.90;7.22;;;;;;;;;;5011580;28;20096;-58
2022/09/08 08:46:20;;;;;;;12.15;6.50;;;;;;;;;;5011214;28;20091;-58
2022/09/08 08:48:49;;;;;;;12.55;6.13;;;;;;;;;;5010914;28;20022;-60
2022/09/08 08:51:15;;;;;;;12.48;6.65;;;;;;;;;;5016485;28;20056;-58
2022/09/08 08:53:41;;;;;;;10.52;6.20;;;;;;;;;;5018946;28;20476;-60
2022/09/08 08:56:07;;;;;;;8.70;5.85;;;;;;;;;;5020573;28;20029;-60
2022/09/08 08:58:51;;;;;;;11.63;5.95;;;;;;;;;;5020372;28;20476;-58
2022/09/08 09:01:17;;;;;;;11.85;6.07;;;;;;;;;;5021531;28;20057;-57
2022/09/08 09:03:43;;;;;;;13.00;6.60;;;;;;;;;;5021385;28;20465;-58
2022/09/08 09:06:15;;;;;;;11.05;5.63;;;;;;;;;;5020719;28;20064;-58
2022/09/08 09:08:41;;;;;;;10.40;5.53;;;;;;;;;;5020555;28;20535;-58
2022/09/08 09:11:07;;;;;;;8.30;5.65;;;;;;;;;;5021821;28;20033;-58
2022/09/08 09:13:52;;;;;;;11.32;5.93;;;;;;;;;;5019593;28;20054;-57
2022/09/08 09:16:18;;;;;;;10.55;5.47;;;;;;;;;;5021501;28;20377;-58
2022/09/08 09:19:07;;;;;;;8.68;5.00;;;;;;;;;;5027346;28;20033;-59
2022/09/08 09:21:52;;;;;;;9.00;5.30;;;;;;;;;;5030705;28;20116;-59
2022/09/08 09:24:33;;;;;;;10.90;5.13;;;;;;;;;;5027591;28;20109;-59
2022/09/08 09:27:02;;;;;;;12.27;5.32;;;;;;;;;;5021168;28;20026;-60
2022/09/08 09:29:28;;;;;;;13.10;5.13;;;;;;;;;;5021129;28;20032;-59
2022/09/08 09:32:04;;;;;;;7.43;4.70;;;;;;;;;;5020477;28;20026;-60
2022/09/08 09:34:49;;;;;;;11.40;5.15;;;;;;;;;;5021621;28;20022;-59
2022/09/08 09:37:15;;;;;;;8.98;5.32;;;;;;;;;;5021247;28;20033;-60
2022/09/08 09:39:49;;;;;;;9.27;5.18;;;;;;;;;;5021141;28;20029;-60
2022/09/08 09:42:30;;;;;;;7.68;4.60;;;;;;;;;;5019454;28;20124;-66
2022/09/08 09:45:16;;;;;;;11.13;4.70;;;;;;;;;;5021887;28;20065;-59
2022/09/08 09:47:42;;;;;;;10.80;5.07;;;;;;;;;;5020980;28;20022;-59
2022/09/08 09:50:28;;;;;;;8.25;4.20;;;;;;;;;;5021301;28;20120;-59
2022/09/08 09:52:57;;;;;;;9.23;4.63;;;;;;;;;;5021284;28;20392;-65
2022/09/08 09:55:42;;;;;;;9.65;4.82;;;;;;;;;;5021565;28;20025;-59
2022/09/08 09:58:26;;;;;;;9.52;5.15;;;;;;;;;;5020637;28;20041;-62
2022/09/08 10:01:07;;;;;;;6.88;4.25;;;;;;;;;;5030077;28;20025;-61
2022/09/08 10:03:49;;;;;;;8.38;4.53;;;;;;;;;;5025476;28;20030;-60
2022/09/08 10:06:15;;;;;;;9.18;4.43;;;;;;;;;;5014494;28;20375;-60
2022/09/08 10:08:51;;;;;;;11.90;4.40;;;;;;;;;;5014161;28;20057;-60
2022/09/08 10:11:20;;;;;;;9.45;4.25;;;;;;;;;;5014429;28;20030;-60
2022/09/08 10:13:46;;;;;;;7.57;3.78;;;;;;;;;;5014171;28;20050;-60
2022/09/08 10:16:30;;;;;;;9.57;4.18;;;;;;;;;;5014418;28;20072;-60
2022/09/08 10:19:04;;;;;;;8.63;3.72;;;;;;;;;;5014036;28;20037;-60
2022/09/08 10:21:39;;;;;;;6.22;3.40;;;;;;;;;;5014050;28;20018;-67
2022/09/08 10:24:20;;;;;;;8.75;3.40;;;;;;;;;;5032866;28;20040;-59
2022/09/08 10:26:49;;;;;;;7.10;2.83;;;;;;;;;;5029900;28;20163;-60
2022/09/08 10:29:35;;;;;;;8.75;3.40;;;;;;;;;;5030971;28;20037;-59
2022/09/08 10:32:02;;;;;;;7.50;3.22;;;;;;;;;;5030380;28;20029;-62
2022/09/08 10:34:28;;;;;;;6.63;3.08;;;;;;;;;;5030027;28;20025;-59
2022/09/08 10:37:04;;;;;;;6.80;2.97;;;;;;;;;;5031738;28;20033;-59
2022/09/08 10:39:30;;;;;;;4.88;3.10;;;;;;;;;;5031352;28;20025;-64
2022/09/08 10:42:05;;;;;;;7.75;3.35;;;;;;;;;;5031992;28;20461;-65
2022/09/08 10:44:49;;;;;;;7.75;3.00;;;;;;;;;;5031503;28;20049;-59
2022/09/08 10:47:26;;;;;;;6.80;3.20;;;;;;;;;;5031552;28;20041;-63
2022/09/08 10:49:55;;;;;;;7.30;3.08;;;;;;;;;;5031177;28;20075;-60
2022/09/08 10:52:25;;;;;;;7.70;3.38;;;;;;;;;;5029573;28;20036;-60
2022/09/08 10:54:59;;;;;;;7.05;3.30;;;;;;;;;;5023269;28;20080;-60
2022/09/08 10:57:29;;;;;;;7.78;4.00;;;;;;;;;;5032727;28;20034;-59
2022/09/08 11:00:02;;;;;;;6.47;3.65;;;;;;;;;;5032380;28;20021;-59
2022/09/08 11:02:35;;;;;;;6.90;3.10;;;;;;;;;;5029596;28;20386;-60
2022/09/08 11:05:20;;;;;;;9.00;3.10;;;;;;;;;;5031973;28;20045;-60
2022/09/08 11:07:55;;;;;;;6.88;3.78;;;;;;;;;;5030658;28;20053;-60
2022/09/08 11:10:25;;;;;;;5.88;3.00;;;;;;;;;;5032283;28;20052;-59
2022/09/08 11:12:54;;;;;;;9.38;3.45;;;;;;;;;;5031714;28;20044;-60
2022/09/08 11:15:20;;;;;;;6.97;3.25;;;;;;;;;;5028511;28;20037;-61
2022/09/08 11:17:48;;;;;;;8.30;3.00;;;;;;;;;;5028705;28;20092;-67
2022/09/08 11:20:20;;;;;;;10.88;3.53;;;;;;;;;;5031934;28;20757;-61
2022/09/08 11:22:49;;;;;;;7.85;3.30;;;;;;;;;;5032537;28;20056;-58
2022/09/08 11:25:24;;;;;;;10.05;3.58;;;;;;;;;;5032217;28;20069;-63
2022/09/08 11:27:56;;;;;;;7.50;3.20;;;;;;;;;;5032138;28;20067;-59
2022/09/08 11:30:23;;;;;;;8.88;3.47;;;;;;;;;;5031907;28;20817;-60
2022/09/08 11:32:56;;;;;;;8.32;3.22;;;;;;;;;;5031878;28;20033;-60
2022/09/08 11:35:25;;;;;;;7.85;3.15;;;;;;;;;;5030225;28;20473;-59
2022/09/08 11:38:03;;;;;;;10.00;3.40;;;;;;;;;;5017527;28;20207;-63
2022/09/08 11:40:38;;;;;;;9.20;3.60;;;;;;;;;;5014827;28;20026;-63
2022/09/08 11:43:06;;;;;;;8.30;3.42;;;;;;;;;;5024423;28;20477;-59
2022/09/08 11:45:32;;;;;;;6.57;3.63;;;;;;;;;;5031512;28;20116;-66
2022/09/08 11:48:17;;;;;;;6.20;3.03;;;;;;;;;;5031942;28;20457;-60
2022/09/08 11:50:58;;;;;;;6.95;3.40;;;;;;;;;;5032218;28;20025;-62
2022/09/08 11:53:27;;;;;;;9.68;3.28;;;;;;;;;;5024493;28;20026;-59
2022/09/08 11:55:53;;;;;;;7.63;3.47;;;;;;;;;;5030989;28;20032;-60
2022/09/08 11:58:38;;;;;;;9.85;3.20;;;;;;;;;;5031966;28;20029;-59
2022/09/08 12:01:27;;;;;;;7.93;3.45;;;;;;;;;;5012384;28;20037;-64
2022/09/08 12:04:11;;;;;;;7.55;3.50;;;;;;;;;;5010255;28;20034;-63
2022/09/08 12:06:56;;;;;;;6.93;3.58;;;;;;;;;;5011983;28;20032;-61
2022/09/08 12:09:26;;;;;;;8.27;3.80;;;;;;;;;;5012047;28;20041;-61
2022/09/08 12:11:58;;;;;;;6.05;3.65;;;;;;;;;;5011758;28;20022;-61
2022/09/08 12:14:27;;;;;;;6.22;3.83;;;;;;;;;;5011619;28;20080;-61
2022/09/08 12:17:12;;;;;;;9.75;3.83;;;;;;;;;;5011216;28;20037;-64
2022/09/08 12:19:41;;;;;;;8.52;4.03;;;;;;;;;;5011444;28;20029;-61
2022/09/08 12:22:07;;;;;;;7.03;3.55;;;;;;;;;;5011206;28;20033;-66
2022/09/08 12:24:33;;;;;;;8.00;3.78;;;;;;;;;;5010543;28;20037;-59
2022/09/08 12:26:59;;;;;;;6.93;3.92;;;;;;;;;;5026191;28;20040;-61
2022/09/08 12:29:32;;;;;;;10.10;4.20;;;;;;;;;;5030977;28;20108;-63
2022/09/08 12:32:03;;;;;;;8.15;4.03;;;;;;;;;;5030942;28;20701;-63
2022/09/08 12:34:33;;;;;;;8.93;4.30;;;;;;;;;;5030772;28;20030;-61
2022/09/08 12:37:12;;;;;;;7.13;4.00;;;;;;;;;;5030666;28;20038;-59
2022/09/08 12:39:47;;;;;;;8.75;3.80;;;;;;;;;;5030151;28;20108;-59
2022/09/08 12:42:32;;;;;;;7.35;4.10;;;;;;;;;;5030331;28;20036;-59
2022/09/08 12:44:58;;;;;;;6.57;3.80;;;;;;;;;;5030959;28;20038;-60
2022/09/08 12:47:27;;;;;;;9.38;4.22;;;;;;;;;;5030917;28;20111;-63
2022/09/08 12:50:00;;;;;;;8.43;3.78;;;;;;;;;;5031194;28;20037;-60
2022/09/08 12:52:35;;;;;;;9.55;4.05;;;;;;;;;;5031108;28;20061;-63
2022/09/08 12:55:20;;;;;;;8.20;4.28;;;;;;;;;;5030816;28;20034;-61
2022/09/08 12:57:56;;;;;;;6.10;3.40;;;;;;;;;;5030533;28;20029;-61
2022/09/08 13:00:29;;;;;;;5.97;4.07;;;;;;;;;;5030703;28;20036;-60
2022/09/08 13:03:14;;;;;;;6.55;4.38;;;;;;;;;;5030522;28;20164;-59
2022/09/08 13:05:40;;;;;;;9.60;4.28;;;;;;;;;;5030757;28;20092;-61
2022/09/08 13:08:15;;;;;;;7.68;4.00;;;;;;;;;;5030654;28;20026;-63
2022/09/08 13:10:44;;;;;;;8.27;4.25;;;;;;;;;;5030767;28;20033;-63
2022/09/08 13:13:28;;;;;;;11.73;4.50;;;;;;;;;;5030300;28;20398;-67
2022/09/08 13:15:58;;;;;;;6.78;4.25;;;;;;;;;;5030596;28;20030;-60
2022/09/08 13:18:24;;;;;;;6.28;4.20;;;;;;;;;;5030505;28;20033;-63
2022/09/08 13:20:52;;;;;;;9.02;4.43;;;;;;;;;;5030692;28;20037;-63
2022/09/08 13:23:29;;;;;;;11.48;5.00;;;;;;;;;;5029502;28;20032;-58
2022/09/08 13:25:58;;;;;;;8.88;4.53;;;;;;;;;;5030391;28;20040;-62
2022/09/08 13:28:24;;;;;;;9.10;4.70;;;;;;;;;;5030304;28;20125;-60
2022/09/08 13:31:05;;;;;;;11.05;4.93;;;;;;;;;;5030385;28;20100;-63
2022/09/08 13:33:50;;;;;;;6.05;4.65;;;;;;;;;;5030352;28;20137;-58
2022/09/08 13:36:32;;;;;;;10.18;5.07;;;;;;;;;;5032669;28;20060;-60
2022/09/08 13:38:58;;;;;;;;;;;;;;;;;;5034762;28;20037;-60
2022/09/08 13:41:43;;;;;;;9.05;5.40;;;;;;;;;;5034548;28;19909;-61
2022/09/08 13:44:27;;;;;;;9.40;5.32;;;;;;;;;;5034493;28;20038;-60
2022/09/08 13:47:04;;;;;;;9.18;6.00;;;;;;;;;;5034363;28;20025;-63
2022/09/08 13:49:43;;;;;;;9.55;6.43;;;;;;;;;;5034453;28;20026;-60
2022/09/08 13:52:18;;;;;;;10.43;6.32;;;;;;;;;;5034405;28;20029;-63
2022/09/08 13:55:02;;;;;;;10.80;5.95;;;;;;;;;;5033912;28;20678;-60
2022/09/08 13:57:46;;;;;;;9.70;6.28;;;;;;;;;;5034025;28;20366;-61
2022/09/08 14:00:12;;;;;;;10.82;6.18;;;;;;;;;;5034265;28;20029;-60
2022/09/08 14:02:49;;;;;;;11.77;6.20;;;;;;;;;;5033611;28;20056;-62
2022/09/08 14:05:15;;;;;;;11.02;6.55;;;;;;;;;;5033916;28;20045;-61
2022/09/08 14:07:48;;;;;;;9.35;5.75;;;;;;;;;;5033933;28;20026;-60
2022/09/08 14:10:19;;;;;;;10.45;6.13;;;;;;;;;;5034258;28;20047;-61
2022/09/08 14:13:17;;;;;;;8.80;5.53;;;;;;;;;;5033985;28;20029;-60
2022/09/08 14:15:47;;;;;;;9.95;5.88;;;;;;;;;;5033858;28;20049;-64
2022/09/08 14:18:22;;;;;;;9.20;5.43;;;;;;;;;;5033698;28;20116;-60
2022/09/08 14:20:54;;;;;;;11.30;5.40;;;;;;;;;;5033859;28;20033;-61
2022/09/08 14:23:26;;;;;;;10.60;5.40;;;;;;;;;;5033787;28;20381;-66
2022/09/08 14:26:12;;;;;;;11.20;5.88;;;;;;;;;;5033633;28;20091;-65
2022/09/08 14:28:44;;;;;;;9.45;5.60;;;;;;;;;;5033617;28;20381;-63
2022/09/08 14:31:17;;;;;;;11.25;5.32;;;;;;;;;;5033348;28;20484;-60
2022/09/08 14:33:46;;;;;;;10.30;5.88;;;;;;;;;;5033275;28;20033;-60
2022/09/08 14:36:39;;;;;;;10.95;6.15;;;;;;;;;;5033478;28;20045;-60
2022/09/08 14:39:14;;;;;;;9.05;5.07;;;;;;;;;;5033835;28;20397;-60
2022/09/08 14:41:44;;;;;;;11.90;5.30;;;;;;;;;;5032074;28;20018;-60
2022/09/08 14:44:14;;;;;;;12.27;6.00;;;;;;;;;;5032821;28;20084;-59
2022/09/08 14:46:41;;;;;;;10.55;5.35;;;;;;;;;;5032825;28;20032;-59
2022/09/08 14:49:13;;;;;;;9.25;5.45;;;;;;;;;;5033002;28;20032;-60
2022/09/08 14:51:49;;;;;;;11.70;5.85;;;;;;;;;;5033129;28;20038;-60
2022/09/08 14:54:27;;;;;;;10.57;5.57;;;;;;;;;;5032766;28;20103;-65
2022/09/08 14:57:07;;;;;;;11.43;5.80;;;;;;;;;;5033298;28;20539;-62
2022/09/08 14:59:38;;;;;;;11.20;5.60;;;;;;;;;;5033134;28;20029;-62
2022/09/08 15:02:13;;;;;;;8.05;5.40;;;;;;;;;;5033162;28;20025;-64
2022/09/08 15:04:44;;;;;;;12.82;5.72;;;;;;;;;;5033397;28;20130;-60
2022/09/08 15:07:17;;;;;;;12.07;5.75;;;;;;;;;;5032861;28;20067;-63
2022/09/08 15:09:47;;;;;;;8.52;5.43;;;;;;;;;;5032798;28;20025;-59
2022/09/08 15:12:20;;;;;;;11.85;5.75;;;;;;;;;;5032954;28;20079;-60
2022/09/08 15:14:54;;;;;;;11.45;5.53;;;;;;;;;;5032802;28;20053;-67
2022/09/08 15:17:28;;;;;;;10.88;5.30;;;;;;;;;;5032924;28;20037;-60
2022/09/08 15:20:00;;;;;;;10.95;5.20;;;;;;;;;;5032907;28;20022;-61
2022/09/08 15:22:26;;;;;;;;;;;;;;;;;;5033457;28;20385;-60
2022/09/08 15:24:52;;;;;;;11.20;5.95;;;;;;;;;;5032776;28;19919;-60
2022/09/08 15:27:25;;;;;;;12.00;5.60;;;;;;;;;;5032733;28;20117;-60
2022/09/08 15:29:57;;;;;;;10.95;5.88;;;;;;;;;;5032753;28;20123;-61
2022/09/08 15:32:23;;;;;;;;;;;;;;;;;;5032345;28;20041;-61
2022/09/08 15:34:56;;;;;;;12.13;5.55;;;;;;;;;;5032441;28;19952;-60
2022/09/08 15:37:32;;;;;;;8.25;5.53;;;;;;;;;;5032200;28;20083;-64
2022/09/08 15:40:19;;;;;;;11.38;5.88;;;;;;;;;;5032449;28;20026;-61
2022/09/08 15:42:49;;;;;;;10.35;5.70;;;;;;;;;;5032283;28;20140;-61
2022/09/08 15:45:30;;;;;;;10.65;5.95;;;;;;;;;;5032882;28;20045;-64
2022/09/08 15:47:56;;;;;;;11.63;6.53;;;;;;;;;;5032095;28;20457;-60
2022/09/08 15:50:26;;;;;;;10.15;5.82;;;;;;;;;;5032413;28;20039;-60
2022/09/08 15:52:57;;;;;;;13.77;6.95;;;;;;;;;;5032014;28;20480;-60
2022/09/08 15:55:42;;;;;;;10.98;6.28;;;;;;;;;;5031695;28;20091;-60
2022/09/08 15:58:20;;;;;;;12.02;6.47;;;;;;;;;;5031504;28;20421;-61
2022/09/08 16:01:01;;;;;;;10.32;5.82;;;;;;;;;;5032088;28;20030;-61
2022/09/08 16:03:39;;;;;;;11.67;6.67;;;;;;;;;;5031955;28;20029;-62
2022/09/08 16:06:34;;;;;;;8.27;5.45;;;;;;;;;;5031287;28;20022;-63
2022/09/08 16:09:07;;;;;;;9.68;5.95;;;;;;;;;;5022811;28;20159;-61
2022/09/08 16:11:33;;;;;;;18.70;6.05;;;;;;;;;;5030602;28;20025;-61
2022/09/08 16:14:18;;;;;;;11.90;5.75;;;;;;;;;;5029724;28;21312;-61
2022/09/08 16:16:45;;;;;;;14.57;5.97;;;;;;;;;;5027633;28;20021;-61
2022/09/08 16:19:19;;;;;;;16.52;6.45;;;;;;;;;;5030187;28;20022;-61
2022/09/08 16:22:05;;;;;;;13.30;6.38;;;;;;;;;;5029898;28;20021;-61
2022/09/08 16:24:31;;;;;;;13.65;6.40;;;;;;;;;;5028379;28;20033;-60
2022/09/08 16:27:13;;;;;;;11.48;5.80;;;;;;;;;;5030054;28;20072;-61
2022/09/08 16:29:46;;;;;;;10.98;6.50;;;;;;;;;;5030823;28;20021;-60
2022/09/08 16:32:17;;;;;;;12.23;6.30;;;;;;;;;;5030200;28;20026;-61
2022/09/08 16:35:05;;;;;;;14.82;6.10;;;;;;;;;;5029903;28;20053;-61
2022/09/08 16:37:41;;;;;;;10.43;6.20;;;;;;;;;;5011132;28;20029;-60
2022/09/08 16:40:10;;;;;;;12.25;6.45;;;;;;;;;;5011711;28;20054;-64
2022/09/08 16:42:36;;;;;;;12.25;6.50;;;;;;;;;;5011199;28;20029;-61
2022/09/08 16:45:11;;;;;;;13.35;6.60;;;;;;;;;;5011368;28;20113;-62
2022/09/08 16:47:48;;;;;;;15.20;6.80;;;;;;;;;;5011897;28;20115;-60
2022/09/08 16:50:14;;;;;;;12.82;7.00;;;;;;;;;;5018780;28;20489;-59
2022/09/08 16:52:45;;;;;;;17.75;6.95;;;;;;;;;;5029363;28;20037;-60
2022/09/08 16:55:30;;;;;;;15.55;6.82;;;;;;;;;;5030129;28;20055;-59
2022/09/08 16:58:06;;;;;;;13.65;7.10;;;;;;;;;;5028019;28;20146;-59
2022/09/08 17:00:46;;;;;;;13.18;6.80;;;;;;;;;;5029829;28;20063;-59
2022/09/08 17:03:15;;;;;;;11.73;6.72;;;;;;;;;;5028048;28;20029;-60
2022/09/08 17:05:42;;;;;;;11.27;6.78;;;;;;;;;;5029588;28;20075;-60
2022/09/08 17:08:14;;;;;;;11.30;6.82;;;;;;;;;;5029791;28;20065;-59
2022/09/08 17:10:40;;;;;;;9.98;6.85;;;;;;;;;;5029495;28;20068;-59
2022/09/08 17:13:39;;;;;;;12.18;6.72;;;;;;;;;;5029125;28;20057;-61
2022/09/08 17:16:20;;;;;;;14.43;6.95;;;;;;;;;;4998564;28;20046;-60
2022/09/08 17:18:49;;;;;;;16.70;6.68;;;;;;;;;;4982100;28;20038;-60
2022/09/08 17:21:35;;;;;;;20.83;7.25;;;;;;;;;;4998344;28;20030;-60
2022/09/08 17:24:22;;;;;;;13.82;6.68;;;;;;;;;;4997396;28;20027;-63
2022/09/08 17:27:24;;;;;;;18.45;7.20;;;;;;;;;;4996488;28;20092;-60
2022/09/08 17:29:52;;;;;;;18.63;7.47;;;;;;;;;;4942991;28;20155;-60
2022/09/08 17:32:30;;;;;;;13.27;7.13;;;;;;;;;;4945689;29;20502;-60
2022/09/08 17:34:58;;;;;;;13.32;6.65;;;;;;;;;;4950285;29;20047;-64
2022/09/08 17:37:35;;;;;;;17.50;8.00;;;;;;;;;;4950071;28;20679;-62
2022/09/08 17:40:01;;;;;;;12.82;7.68;;;;;;;;;;4950449;28;20499;-60
2022/09/08 17:42:36;;;;;;;15.65;7.00;;;;;;;;;;4946807;28;20039;-62
2022/09/08 17:45:02;;;;;;;11.45;7.32;;;;;;;;;;4930426;29;20048;-62
2022/09/08 17:47:30;;;;;;;14.35;6.82;;;;;;;;;;4936506;29;20067;-61
